createdAt,value
2022-09-19T00:00:00.579Z,1003.03
2022-09-19T00:01:00.569Z,1002.97
2022-09-19T00:02:00.877Z,1002.95
2022-09-19T00:03:00.563Z,1003.04
2022-09-19T00:04:00.525Z,1003.07
2022-09-19T00:05:00.513Z,1003.06
2022-09-19T00:06:00.512Z,1003.01
2022-09-19T00:07:00.493Z,1002.93
2022-09-19T00:08:00.780Z,1002.96
2022-09-19T00:09:00.484Z,1003.04
2022-09-19T00:10:00.737Z,1003.02
2022-09-19T00:11:00.461Z,1003.02
2022-09-19T00:12:00.444Z,1002.94
2022-09-19T00:13:00.434Z,1003.00
2022-09-19T00:14:00.415Z,1003.06
2022-09-19T00:15:00.391Z,1003.02
2022-09-19T00:16:00.756Z,1003.09
2022-09-19T00:17:00.382Z,1003.05
2022-09-19T00:18:00.363Z,1003.07
2022-09-19T00:19:00.358Z,1003.08
2022-09-19T00:20:00.545Z,1003.02
2022-09-19T00:21:00.323Z,1003.08
2022-09-19T00:22:00.313Z,1003.06
2022-09-19T00:23:00.315Z,1003.01
2022-09-19T00:24:00.293Z,1003.03
2022-09-19T00:25:00.287Z,1002.99
2022-09-19T00:26:00.564Z,1003.04
2022-09-19T00:27:00.244Z,1003.02
2022-09-19T00:28:00.254Z,1003.02
2022-09-19T00:29:00.249Z,1003.05
2022-09-19T00:30:00.233Z,1003.01
2022-09-19T00:31:00.204Z,1003.04
2022-09-19T00:32:00.509Z,1002.99
2022-09-19T00:33:00.183Z,1002.98
2022-09-19T00:34:00.175Z,1003.06
2022-09-19T00:35:00.196Z,1003.00
2022-09-19T00:36:00.146Z,1003.10
2022-09-19T00:37:00.159Z,1003.06
2022-09-19T00:38:00.128Z,1003.07
2022-09-19T00:39:00.117Z,1003.06
2022-09-19T00:40:00.179Z,1003.01
2022-09-19T00:41:00.309Z,1002.98
2022-09-19T00:42:00.091Z,1003.04
2022-09-19T00:43:00.067Z,1003.00
2022-09-19T00:44:00.068Z,1003.09
2022-09-19T00:45:00.256Z,1003.03
2022-09-19T00:46:00.104Z,1003.09
2022-09-19T00:47:00.018Z,1003.07
2022-09-19T00:48:00.008Z,1003.10
2022-09-19T00:49:00.021Z,1003.18
2022-09-19T00:50:00.225Z,1003.17
2022-09-19T00:51:00.017Z,1003.19
2022-09-19T00:51:59.970Z,1003.15
2022-09-19T00:52:59.982Z,1003.15
2022-09-19T00:53:59.978Z,1003.20
2022-09-19T00:54:59.952Z,1003.19
2022-09-19T00:56:00.244Z,1003.20
2022-09-19T00:56:59.922Z,1003.25
2022-09-19T00:57:59.899Z,1003.28
2022-09-19T00:58:59.923Z,1003.28
2022-09-19T00:59:59.891Z,1003.25
2022-09-19T01:01:00.167Z,1003.26
2022-09-19T01:01:59.865Z,1003.28
2022-09-19T01:02:59.963Z,1003.25
2022-09-19T01:03:59.844Z,1003.30
2022-09-19T01:04:59.815Z,1003.28
2022-09-19T01:05:59.813Z,1003.30
2022-09-19T01:07:00.127Z,1003.25
2022-09-19T01:07:59.781Z,1003.22
2022-09-19T01:09:00.011Z,1003.23
2022-09-19T01:09:59.762Z,1003.21
2022-09-19T01:10:59.743Z,1003.26
2022-09-19T01:11:59.732Z,1003.35
2022-09-19T01:12:59.715Z,1003.35
2022-09-19T01:13:59.757Z,1003.39
2022-09-19T01:14:59.694Z,1003.36
2022-09-19T01:15:59.771Z,1003.33
2022-09-19T01:16:59.674Z,1003.33
2022-09-19T01:17:59.998Z,1003.27
2022-09-19T01:18:59.665Z,1003.37
2022-09-19T01:19:59.676Z,1003.35
2022-09-19T01:20:59.625Z,1003.38
2022-09-19T01:21:59.639Z,1003.37
2022-09-19T01:22:59.606Z,1003.33
2022-09-19T01:23:59.818Z,1003.39
2022-09-19T01:24:59.586Z,1003.39
2022-09-19T01:25:59.594Z,1003.37
2022-09-19T01:26:59.581Z,1003.31
2022-09-19T01:27:59.555Z,1003.37
2022-09-19T01:28:59.560Z,1003.31
2022-09-19T01:29:59.562Z,1003.39
2022-09-19T01:30:59.530Z,1003.40
2022-09-19T01:31:59.543Z,1003.36
2022-09-19T01:32:59.497Z,1003.42
2022-09-19T01:33:59.711Z,1003.40
2022-09-19T01:34:59.669Z,1003.45
2022-09-19T01:35:59.457Z,1003.43
2022-09-19T01:36:59.460Z,1003.40
2022-09-19T01:38:00.403Z,1003.43
2022-09-19T01:38:59.451Z,1003.50
2022-09-19T01:39:59.481Z,1003.45
2022-09-19T01:40:59.661Z,1003.46
2022-09-19T01:41:59.388Z,1003.45
2022-09-19T01:42:59.378Z,1003.45
2022-09-19T01:43:59.367Z,1003.44
2022-09-19T01:44:59.374Z,1003.51
2022-09-19T01:45:59.684Z,1003.48
2022-09-19T01:46:59.343Z,1003.47
2022-09-19T01:47:59.321Z,1003.50
2022-09-19T01:48:59.312Z,1003.53
2022-09-19T01:49:59.312Z,1003.52
2022-09-19T01:50:59.614Z,1003.55
2022-09-19T01:51:59.271Z,1003.55
2022-09-19T01:52:59.555Z,1003.53
2022-09-19T01:53:59.266Z,1003.50
2022-09-19T01:54:59.242Z,1003.52
2022-09-19T01:55:59.364Z,1003.56
2022-09-19T01:56:59.233Z,1003.51
2022-09-19T01:57:59.415Z,1003.57
2022-09-19T01:58:59.331Z,1003.53
2022-09-19T01:59:59.196Z,1003.59
2022-09-19T02:00:59.212Z,1003.55
2022-09-19T02:01:59.186Z,1003.55
2022-09-19T02:02:59.163Z,1003.57
2022-09-19T02:03:59.134Z,1003.55
2022-09-19T02:04:59.381Z,1003.55
2022-09-19T02:05:59.104Z,1003.52
2022-09-19T02:06:59.115Z,1003.52
2022-09-19T02:07:59.098Z,1003.53
2022-09-19T02:08:59.095Z,1003.52
2022-09-19T02:09:59.065Z,1003.61
2022-09-19T02:10:59.376Z,1003.58
2022-09-19T02:11:59.035Z,1003.63
2022-09-19T02:12:59.034Z,1003.64
2022-09-19T02:13:59.016Z,1003.67
2022-09-19T02:14:59.016Z,1003.65
2022-09-19T02:15:59.033Z,1003.63
2022-09-19T02:16:59.308Z,1003.62
2022-09-19T02:17:58.975Z,1003.61
2022-09-19T02:18:58.987Z,1003.65
2022-09-19T02:19:58.962Z,1003.64
2022-09-19T02:20:58.951Z,1003.69
2022-09-19T02:21:58.939Z,1003.68
2022-09-19T02:22:59.227Z,1003.67
2022-09-19T02:23:58.908Z,1003.67
2022-09-19T02:24:58.917Z,1003.62
2022-09-19T02:25:58.892Z,1003.64
2022-09-19T02:26:58.868Z,1003.65
2022-09-19T02:27:58.857Z,1003.61
2022-09-19T02:28:59.122Z,1003.66
2022-09-19T02:29:58.829Z,1003.61
2022-09-19T02:30:58.828Z,1003.62
2022-09-19T02:31:58.889Z,1003.64
2022-09-19T02:32:59.007Z,1003.67
2022-09-19T02:33:58.810Z,1003.62
2022-09-19T02:34:58.793Z,1003.66
2022-09-19T02:35:58.769Z,1003.70
2022-09-19T02:36:59.081Z,1003.71
2022-09-19T02:37:58.741Z,1003.70
2022-09-19T02:38:58.970Z,1003.76
2022-09-19T02:39:58.770Z,1003.75
2022-09-19T02:40:58.726Z,1003.76
2022-09-19T02:41:58.693Z,1003.78
2022-09-19T02:42:58.706Z,1003.77
2022-09-19T02:43:58.707Z,1003.80
2022-09-19T02:44:58.661Z,1003.77
2022-09-19T02:45:58.688Z,1003.73
2022-09-19T02:46:58.665Z,1003.71
2022-09-19T02:47:58.642Z,1003.74
2022-09-19T02:48:58.622Z,1003.77
2022-09-19T02:49:58.937Z,1003.79
2022-09-19T02:50:58.614Z,1003.78
2022-09-19T02:51:58.581Z,1003.84
2022-09-19T02:52:58.565Z,1003.81
2022-09-19T02:53:58.554Z,1003.80
2022-09-19T02:54:58.855Z,1003.86
2022-09-19T02:55:58.533Z,1003.84
2022-09-19T02:56:58.525Z,1003.79
2022-09-19T02:57:58.514Z,1003.79
2022-09-19T02:58:58.504Z,1003.80
2022-09-19T02:59:58.494Z,1003.80
2022-09-19T03:00:58.860Z,1003.81
2022-09-19T03:01:58.551Z,1003.81
2022-09-19T03:02:58.785Z,1003.79
2022-09-19T03:03:58.446Z,1003.77
2022-09-19T03:04:58.449Z,1003.82
2022-09-19T03:05:58.445Z,1003.83
2022-09-19T03:06:58.438Z,1003.84
2022-09-19T03:07:58.425Z,1003.90
2022-09-19T03:08:58.433Z,1003.80
2022-09-19T03:09:58.375Z,1003.84
2022-09-19T03:10:58.378Z,1003.82
2022-09-19T03:11:58.374Z,1003.88
2022-09-19T03:12:58.361Z,1003.90
2022-09-19T03:13:58.336Z,1003.92
2022-09-19T03:14:58.621Z,1003.95
2022-09-19T03:15:58.394Z,1003.96
2022-09-19T03:16:58.298Z,1003.96
2022-09-19T03:17:58.302Z,1003.94
2022-09-19T03:18:58.305Z,1003.96
2022-09-19T03:19:58.599Z,1003.94
2022-09-19T03:20:58.272Z,1003.94
2022-09-19T03:21:58.251Z,1003.88
2022-09-19T03:22:58.244Z,1003.97
2022-09-19T03:23:58.283Z,1003.89
2022-09-19T03:24:58.210Z,1003.88
2022-09-19T03:25:59.879Z,1003.96
2022-09-19T03:26:58.194Z,1003.95
2022-09-19T03:27:58.184Z,1003.95
2022-09-19T03:28:58.168Z,1003.96
2022-09-19T03:29:58.164Z,1003.99
2022-09-19T03:30:58.371Z,1004.02
2022-09-19T03:31:58.163Z,1004.03
2022-09-19T03:32:58.113Z,1004.00
2022-09-19T03:33:58.100Z,1004.01
2022-09-19T03:34:58.091Z,1004.02
2022-09-19T03:35:58.232Z,1004.02
2022-09-19T03:36:58.064Z,1003.98
2022-09-19T03:37:58.060Z,1004.04
2022-09-19T03:38:58.066Z,1004.03
2022-09-19T03:39:58.070Z,1004.06
2022-09-19T03:40:58.046Z,1004.05
2022-09-19T03:41:58.246Z,1004.06
2022-09-19T03:42:58.015Z,1004.05
2022-09-19T03:44:05.146Z,1004.07
2022-09-19T03:44:57.988Z,1004.07
2022-09-19T03:45:58.023Z,1004.01
2022-09-19T03:46:58.275Z,1004.08
2022-09-19T03:47:57.946Z,1004.09
2022-09-19T03:48:57.949Z,1004.12
2022-09-19T03:49:57.917Z,1004.05
2022-09-19T03:50:57.920Z,1004.01
2022-09-19T03:51:58.107Z,1004.06
2022-09-19T03:52:57.899Z,1004.10
2022-09-19T03:53:57.866Z,1004.06
2022-09-19T03:54:57.900Z,1004.07
2022-09-19T03:55:57.840Z,1004.06
2022-09-19T03:56:57.856Z,1004.04
2022-09-19T03:57:58.151Z,1004.02
2022-09-19T03:58:57.829Z,1004.03
2022-09-19T03:59:57.798Z,1004.03
2022-09-19T04:00:57.808Z,1004.01
2022-09-19T04:01:57.824Z,1004.03
2022-09-19T04:02:57.769Z,1004.09
2022-09-19T04:03:57.968Z,1004.03
2022-09-19T04:04:57.770Z,1004.09
2022-09-19T04:05:57.733Z,1004.10
2022-09-19T04:06:57.752Z,1004.13
2022-09-19T04:07:57.713Z,1004.13
2022-09-19T04:08:57.700Z,1004.15
2022-09-19T04:09:57.710Z,1004.19
2022-09-19T04:10:57.692Z,1004.19
2022-09-19T04:11:57.658Z,1004.16
2022-09-19T04:12:57.654Z,1004.16
2022-09-19T04:13:57.640Z,1004.21
2022-09-19T04:14:57.943Z,1004.20
2022-09-19T04:15:57.684Z,1004.20
2022-09-19T04:17:20.862Z,1004.21
2022-09-19T04:17:58.590Z,1004.22
2022-09-19T04:18:57.813Z,1004.20
2022-09-19T04:19:57.587Z,1004.21
2022-09-19T04:20:57.554Z,1004.23
2022-09-19T04:21:57.866Z,1004.19
2022-09-19T04:22:57.546Z,1004.26
2022-09-19T04:23:57.522Z,1004.24
2022-09-19T04:24:57.526Z,1004.25
2022-09-19T04:25:57.494Z,1004.29
2022-09-19T04:26:58.944Z,1004.29
2022-09-19T04:27:57.795Z,1004.32
2022-09-19T04:28:57.480Z,1004.30
2022-09-19T04:29:57.453Z,1004.35
2022-09-19T04:30:57.458Z,1004.37
2022-09-19T04:31:57.500Z,1004.36
2022-09-19T04:32:57.669Z,1004.36
2022-09-19T04:33:57.422Z,1004.35
2022-09-19T04:34:57.717Z,1004.33
2022-09-19T04:35:57.385Z,1004.31
2022-09-19T04:36:57.373Z,1004.33
2022-09-19T04:37:57.356Z,1004.35
2022-09-19T04:38:57.368Z,1004.32
2022-09-19T04:39:57.373Z,1004.39
2022-09-19T04:40:57.609Z,1004.38
2022-09-19T04:41:57.331Z,1004.41
2022-09-19T04:42:57.306Z,1004.40
2022-09-19T04:43:57.300Z,1004.40
2022-09-19T04:44:57.287Z,1004.39
2022-09-19T04:45:57.342Z,1004.43
2022-09-19T04:46:57.511Z,1004.42
2022-09-19T04:47:57.260Z,1004.41
2022-09-19T04:48:57.239Z,1004.41
2022-09-19T04:49:57.988Z,1004.36
2022-09-19T04:50:57.230Z,1004.41
2022-09-19T04:51:57.223Z,1004.43
2022-09-19T04:52:57.203Z,1004.43
2022-09-19T04:53:57.430Z,1004.46
2022-09-19T04:54:57.180Z,1004.45
2022-09-19T04:55:57.171Z,1004.50
2022-09-19T04:56:57.163Z,1004.51
2022-09-19T04:57:57.344Z,1004.58
2022-09-19T04:58:57.121Z,1004.56
2022-09-19T04:59:57.101Z,1004.57
2022-09-19T05:00:57.168Z,1004.58
2022-09-19T05:01:57.125Z,1004.51
2022-09-19T05:02:57.096Z,1004.60
2022-09-19T05:03:57.290Z,1004.61
2022-09-19T05:04:57.050Z,1004.61
2022-09-19T05:05:57.033Z,1004.62
2022-09-19T05:06:57.089Z,1004.59
2022-09-19T05:07:57.028Z,1004.63
2022-09-19T05:08:57.024Z,1004.64
2022-09-19T05:09:57.306Z,1004.61
2022-09-19T05:10:56.983Z,1004.62
2022-09-19T05:11:56.964Z,1004.60
2022-09-19T05:12:56.968Z,1004.56
2022-09-19T05:13:56.944Z,1004.61
2022-09-19T05:14:56.934Z,1004.66
2022-09-19T05:15:57.303Z,1004.66
2022-09-19T05:16:56.904Z,1004.66
2022-09-19T05:17:56.894Z,1004.67
2022-09-19T05:18:56.898Z,1004.66
2022-09-19T05:19:56.865Z,1004.73
2022-09-19T05:20:56.876Z,1004.73
2022-09-19T05:21:57.137Z,1004.76
2022-09-19T05:22:56.844Z,1004.78
2022-09-19T05:23:56.838Z,1004.80
2022-09-19T05:24:56.844Z,1004.76
2022-09-19T05:25:56.797Z,1004.74
2022-09-19T05:26:56.797Z,1004.74
2022-09-19T05:27:57.008Z,1004.77
2022-09-19T05:28:56.778Z,1004.71
2022-09-19T05:29:56.765Z,1004.81
2022-09-19T05:30:56.816Z,1004.76
2022-09-19T05:31:56.818Z,1004.83
2022-09-19T05:32:56.732Z,1004.81
2022-09-19T05:33:57.030Z,1004.80
2022-09-19T05:34:56.712Z,1004.87
2022-09-19T05:35:56.679Z,1004.83
2022-09-19T05:36:56.692Z,1004.86
2022-09-19T05:37:56.682Z,1004.91
2022-09-19T05:38:56.663Z,1004.89
2022-09-19T05:39:56.734Z,1004.88
2022-09-19T05:40:56.627Z,1004.91
2022-09-19T05:41:56.624Z,1004.90
2022-09-19T05:42:56.638Z,1004.90
2022-09-19T05:43:56.606Z,1004.92
2022-09-19T05:44:56.581Z,1004.90
2022-09-19T05:45:56.852Z,1004.92
2022-09-19T05:46:56.648Z,1004.98
2022-09-19T05:47:56.563Z,1004.96
2022-09-19T05:48:56.531Z,1004.98
2022-09-19T05:49:56.535Z,1005.03
2022-09-19T05:50:56.513Z,1004.95
2022-09-19T05:51:56.858Z,1005.03
2022-09-19T05:52:56.527Z,1004.99
2022-09-19T05:53:56.493Z,1005.04
2022-09-19T05:54:56.788Z,1005.01
2022-09-19T05:55:56.462Z,1005.02
2022-09-19T05:56:56.466Z,1005.05
2022-09-19T05:57:56.432Z,1005.05
2022-09-19T05:58:56.433Z,1005.04
2022-09-19T05:59:56.418Z,1005.08
2022-09-19T06:00:56.420Z,1005.15
2022-09-19T06:01:56.431Z,1005.11
2022-09-19T06:02:56.379Z,1005.14
2022-09-19T06:03:56.665Z,1005.13
2022-09-19T06:04:56.357Z,1005.15
2022-09-19T06:05:56.335Z,1005.16
2022-09-19T06:06:56.338Z,1005.12
2022-09-19T06:07:56.316Z,1005.15
2022-09-19T06:08:56.315Z,1005.21
2022-09-19T06:09:56.616Z,1005.14
2022-09-19T06:10:56.276Z,1005.21
2022-09-19T06:11:56.268Z,1005.22
2022-09-19T06:12:56.267Z,1005.20
2022-09-19T06:13:56.242Z,1005.22
2022-09-19T06:14:56.227Z,1005.22
2022-09-19T06:15:56.259Z,1005.21
2022-09-19T06:16:56.206Z,1005.22
2022-09-19T06:17:56.199Z,1005.27
2022-09-19T06:18:56.213Z,1005.28
2022-09-19T06:19:56.168Z,1005.25
2022-09-19T06:20:56.179Z,1005.27
2022-09-19T06:21:56.157Z,1005.30
2022-09-19T06:22:56.151Z,1005.31
2022-09-19T06:23:56.135Z,1005.31
2022-09-19T06:24:56.341Z,1005.35
2022-09-19T06:25:56.108Z,1005.38
2022-09-19T06:26:56.101Z,1005.39
2022-09-19T06:27:56.093Z,1005.34
2022-09-19T06:28:56.061Z,1005.35
2022-09-19T06:29:56.071Z,1005.42
2022-09-19T06:30:56.040Z,1005.47
2022-09-19T06:31:56.091Z,1005.44
2022-09-19T06:32:56.010Z,1005.48
2022-09-19T06:33:56.024Z,1005.53
2022-09-19T06:34:58.491Z,1005.53
2022-09-19T06:35:55.989Z,1005.53
2022-09-19T06:36:55.972Z,1005.60
2022-09-19T06:37:55.976Z,1005.57
2022-09-19T06:38:55.962Z,1005.59
2022-09-19T06:39:56.284Z,1005.60
2022-09-19T06:40:55.947Z,1005.60
2022-09-19T06:41:55.925Z,1005.61
2022-09-19T06:42:55.903Z,1005.63
2022-09-19T06:43:55.892Z,1005.64
2022-09-19T06:44:55.887Z,1005.61
2022-09-19T06:45:56.312Z,1005.64
2022-09-19T06:46:55.852Z,1005.65
2022-09-19T06:47:55.843Z,1005.69
2022-09-19T06:48:55.825Z,1005.68
2022-09-19T06:49:55.814Z,1005.72
2022-09-19T06:50:55.804Z,1005.71
2022-09-19T06:51:55.849Z,1005.74
2022-09-19T06:52:55.784Z,1005.77
2022-09-19T06:53:55.788Z,1005.77
2022-09-19T06:54:55.755Z,1005.72
2022-09-19T06:55:55.759Z,1005.72
2022-09-19T06:56:55.750Z,1005.71
2022-09-19T06:57:55.760Z,1005.73
2022-09-19T06:58:55.729Z,1005.71
2022-09-19T06:59:55.719Z,1005.71
2022-09-19T07:00:56.001Z,1005.74
2022-09-19T07:01:55.750Z,1005.74
2022-09-19T07:02:55.667Z,1005.75
2022-09-19T07:03:55.668Z,1005.81
2022-09-19T07:04:55.648Z,1005.80
2022-09-19T07:05:55.628Z,1005.82
2022-09-19T07:06:55.632Z,1005.80
2022-09-19T07:07:55.608Z,1005.81
2022-09-19T07:08:55.698Z,1005.77
2022-09-19T07:09:55.580Z,1005.85
2022-09-19T07:10:55.586Z,1005.83
2022-09-19T07:11:55.567Z,1005.80
2022-09-19T07:12:57.377Z,1005.85
2022-09-19T07:13:55.683Z,1005.83
2022-09-19T07:14:58.800Z,1005.86
2022-09-19T07:15:55.583Z,1005.83
2022-09-19T07:16:55.514Z,1005.86
2022-09-19T07:17:55.514Z,1005.87
2022-09-19T07:18:55.492Z,1005.86
2022-09-19T07:19:55.515Z,1005.86
2022-09-19T07:20:55.465Z,1005.88
2022-09-19T07:21:55.574Z,1005.85
2022-09-19T07:22:55.462Z,1005.89
2022-09-19T07:23:55.440Z,1005.90
2022-09-19T07:24:55.410Z,1005.89
2022-09-19T07:25:55.392Z,1005.92
2022-09-19T07:26:55.602Z,1005.95
2022-09-19T07:27:57.167Z,1006.02
2022-09-19T07:28:56.364Z,1005.97
2022-09-19T07:29:55.356Z,1006.00
2022-09-19T07:30:55.333Z,1006.06
2022-09-19T07:31:55.430Z,1006.00
2022-09-19T07:32:55.558Z,1006.07
2022-09-19T07:33:55.307Z,1006.00
2022-09-19T07:34:55.296Z,1006.06
2022-09-19T07:35:55.299Z,1006.08
2022-09-19T07:36:55.291Z,1006.07
2022-09-19T07:37:55.507Z,1006.05
2022-09-19T07:38:55.262Z,1006.03
2022-09-19T07:40:07.889Z,1006.06
2022-09-19T07:40:56.285Z,1006.02
2022-09-19T07:41:55.229Z,1006.05
2022-09-19T07:42:55.438Z,1006.01
2022-09-19T07:43:55.526Z,1006.05
2022-09-19T07:44:55.206Z,1006.04
2022-09-19T07:45:55.247Z,1006.05
2022-09-19T07:46:55.168Z,1006.11
2022-09-19T07:47:55.273Z,1006.05
2022-09-19T07:48:55.169Z,1006.12
2022-09-19T07:49:55.146Z,1006.14
2022-09-19T07:50:58.905Z,1006.13
2022-09-19T07:51:55.113Z,1006.20
2022-09-19T07:52:55.093Z,1006.21
2022-09-19T07:53:55.078Z,1006.20
2022-09-19T07:54:55.104Z,1006.25
2022-09-19T07:55:55.051Z,1006.24
2022-09-19T07:56:55.038Z,1006.26
2022-09-19T07:57:55.043Z,1006.27
2022-09-19T07:58:55.048Z,1006.28
2022-09-19T07:59:55.010Z,1006.33
2022-09-19T08:00:55.152Z,1006.28
2022-09-19T08:01:55.064Z,1006.30
2022-09-19T08:02:54.984Z,1006.27
2022-09-19T08:03:54.972Z,1006.35
2022-09-19T08:04:54.949Z,1006.34
2022-09-19T08:05:55.175Z,1006.35
2022-09-19T08:06:54.943Z,1006.34
2022-09-19T08:07:54.922Z,1006.37
2022-09-19T08:08:54.926Z,1006.38
2022-09-19T08:09:54.903Z,1006.44
2022-09-19T08:10:54.884Z,1006.42
2022-09-19T08:11:55.107Z,1006.41
2022-09-19T08:12:54.880Z,1006.39
2022-09-19T08:13:54.868Z,1006.42
2022-09-19T08:14:54.842Z,1006.40
2022-09-19T08:15:55.793Z,1006.46
2022-09-19T08:16:54.850Z,1006.47
2022-09-19T08:17:54.838Z,1006.44
2022-09-19T08:18:54.794Z,1006.41
2022-09-19T08:19:54.808Z,1006.46
2022-09-19T08:20:54.789Z,1006.43
2022-09-19T08:21:54.799Z,1006.46
2022-09-19T08:22:54.758Z,1006.43
2022-09-19T08:23:54.747Z,1006.45
2022-09-19T08:24:54.726Z,1006.47
2022-09-19T08:25:54.730Z,1006.44
2022-09-19T08:26:54.916Z,1006.45
2022-09-19T08:27:54.710Z,1006.48
2022-09-19T08:28:54.695Z,1006.51
2022-09-19T08:29:54.682Z,1006.50
2022-09-19T08:30:54.670Z,1006.49
2022-09-19T08:31:54.713Z,1006.46
2022-09-19T08:32:54.870Z,1006.51
2022-09-19T08:33:54.627Z,1006.47
2022-09-19T08:34:54.621Z,1006.46
2022-09-19T08:35:54.621Z,1006.50
2022-09-19T08:36:54.603Z,1006.46
2022-09-19T08:37:54.594Z,1006.55
2022-09-19T08:38:54.804Z,1006.48
2022-09-19T08:39:54.614Z,1006.47
2022-09-19T08:40:54.601Z,1006.52
2022-09-19T08:41:54.531Z,1006.51
2022-09-19T08:42:54.535Z,1006.43
2022-09-19T08:43:54.524Z,1006.51
2022-09-19T08:44:54.533Z,1006.43
2022-09-19T08:45:54.585Z,1006.46
2022-09-19T08:46:54.485Z,1006.46
2022-09-19T08:47:54.465Z,1006.48
2022-09-19T08:48:54.463Z,1006.48
2022-09-19T08:49:54.463Z,1006.47
2022-09-19T08:50:54.438Z,1006.47
2022-09-19T08:51:54.427Z,1006.48
2022-09-19T08:52:54.417Z,1006.46
2022-09-19T08:53:54.408Z,1006.46
2022-09-19T08:54:54.374Z,1006.46
2022-09-19T08:55:54.652Z,1006.48
2022-09-19T08:56:54.357Z,1006.46
2022-09-19T08:57:54.360Z,1006.46
2022-09-19T08:58:54.345Z,1006.51
2022-09-19T08:59:54.325Z,1006.47
2022-09-19T09:00:54.362Z,1006.43
2022-09-19T09:02:12.795Z,1006.52
2022-09-19T09:03:19.138Z,1006.50
2022-09-19T09:03:55.362Z,1006.54
2022-09-19T09:04:54.258Z,1006.54
2022-09-19T09:05:54.267Z,1006.55
2022-09-19T09:06:54.255Z,1006.53
2022-09-19T09:07:54.459Z,1006.55
2022-09-19T09:08:54.241Z,1006.55
2022-09-19T09:09:54.221Z,1006.55
2022-09-19T09:10:54.191Z,1006.50
2022-09-19T09:11:54.191Z,1006.50
2022-09-19T09:12:54.182Z,1006.45
2022-09-19T09:14:00.390Z,1006.55
2022-09-19T09:15:18.209Z,1006.56
2022-09-19T09:15:55.152Z,1006.52
2022-09-19T09:16:54.120Z,1006.54
2022-09-19T09:17:54.134Z,1006.58
2022-09-19T09:18:54.158Z,1006.54
2022-09-19T09:19:57.155Z,1006.63
2022-09-19T09:20:54.112Z,1006.54
2022-09-19T09:21:54.081Z,1006.60
2022-09-19T09:22:54.070Z,1006.66
2022-09-19T09:23:54.082Z,1006.61
2022-09-19T09:24:54.294Z,1006.60
2022-09-19T09:25:54.660Z,1006.61
2022-09-19T09:26:54.003Z,1006.57
2022-09-19T09:27:53.993Z,1006.65
2022-09-19T09:28:53.996Z,1006.67
2022-09-19T09:29:53.977Z,1006.57
2022-09-19T09:30:53.993Z,1006.59
2022-09-19T09:31:53.997Z,1006.63
2022-09-19T09:32:53.934Z,1006.63
2022-09-19T09:33:53.949Z,1006.60
2022-09-19T09:34:53.916Z,1006.53
2022-09-19T09:35:53.919Z,1006.54
2022-09-19T09:36:53.905Z,1006.54
2022-09-19T09:37:53.898Z,1006.59
2022-09-19T09:38:53.880Z,1006.55
2022-09-19T09:39:54.012Z,1006.60
2022-09-19T09:40:53.860Z,1006.62
2022-09-19T09:41:53.860Z,1006.61
2022-09-19T09:42:53.850Z,1006.61
2022-09-19T09:43:54.031Z,1006.55
2022-09-19T09:45:00.837Z,1006.60
2022-09-19T09:45:53.880Z,1006.65
2022-09-19T09:46:53.792Z,1006.61
2022-09-19T09:47:53.781Z,1006.61
2022-09-19T09:48:53.993Z,1006.55
2022-09-19T09:49:53.762Z,1006.55
2022-09-19T09:50:53.742Z,1006.59
2022-09-19T09:51:53.780Z,1006.55
2022-09-19T09:52:53.710Z,1006.55
2022-09-19T09:53:54.015Z,1006.55
2022-09-19T09:54:53.826Z,1006.61
2022-09-19T09:55:53.689Z,1006.63
2022-09-19T09:56:53.691Z,1006.62
2022-09-19T09:57:54.563Z,1006.64
2022-09-19T09:58:53.802Z,1006.57
2022-09-19T09:59:53.867Z,1006.59
2022-09-19T10:00:53.675Z,1006.48
2022-09-19T10:01:53.651Z,1006.52
2022-09-19T10:02:53.620Z,1006.55
2022-09-19T10:03:53.876Z,1006.56
2022-09-19T10:04:53.597Z,1006.59
2022-09-19T10:05:53.563Z,1006.61
2022-09-19T10:06:53.550Z,1006.57
2022-09-19T10:07:53.547Z,1006.57
2022-09-19T10:08:53.835Z,1006.56
2022-09-19T10:09:53.526Z,1006.56
2022-09-19T10:10:53.506Z,1006.55
2022-09-19T10:13:00.164Z,1006.56
2022-09-19T10:13:54.527Z,1006.58
2022-09-19T10:14:53.487Z,1006.54
2022-09-19T10:15:53.460Z,1006.55
2022-09-19T10:16:53.544Z,1006.61
2022-09-19T10:17:53.440Z,1006.50
2022-09-19T10:18:53.418Z,1006.50
2022-09-19T10:19:53.609Z,1006.54
2022-09-19T10:20:53.509Z,1006.56
2022-09-19T10:21:53.378Z,1006.57
2022-09-19T10:22:53.409Z,1006.53
2022-09-19T10:23:53.362Z,1006.52
2022-09-19T10:24:53.363Z,1006.53
2022-09-19T10:25:53.330Z,1006.60
2022-09-19T10:26:53.331Z,1006.56
2022-09-19T10:27:53.301Z,1006.51
2022-09-19T10:28:53.631Z,1006.53
2022-09-19T10:29:53.294Z,1006.48
2022-09-19T10:30:53.285Z,1006.50
2022-09-19T10:31:53.468Z,1006.55
2022-09-19T10:32:53.252Z,1006.54
2022-09-19T10:33:53.232Z,1006.56
2022-09-19T10:34:53.445Z,1006.50
2022-09-19T10:35:55.904Z,1006.50
2022-09-19T10:36:53.216Z,1006.50
2022-09-19T10:37:53.524Z,1006.40
2022-09-19T10:38:53.196Z,1006.43
2022-09-19T10:39:53.164Z,1006.45
2022-09-19T10:40:53.176Z,1006.50
2022-09-19T10:41:53.145Z,1006.46
2022-09-19T10:42:53.150Z,1006.50
2022-09-19T10:43:53.517Z,1006.49
2022-09-19T10:44:53.127Z,1006.52
2022-09-19T10:45:53.155Z,1006.47
2022-09-19T10:46:53.086Z,1006.46
2022-09-19T10:47:53.081Z,1006.52
2022-09-19T10:48:53.359Z,1006.54
2022-09-19T10:49:53.067Z,1006.56
2022-09-19T10:50:53.059Z,1006.52
2022-09-19T10:51:53.030Z,1006.47
2022-09-19T10:52:53.149Z,1006.56
2022-09-19T10:53:53.008Z,1006.46
2022-09-19T10:54:53.273Z,1006.43
2022-09-19T10:55:52.988Z,1006.48
2022-09-19T10:56:52.996Z,1006.42
2022-09-19T10:57:52.993Z,1006.39
2022-09-19T10:58:52.977Z,1006.40
2022-09-19T10:59:52.970Z,1006.39
2022-09-19T11:00:52.999Z,1006.37
2022-09-19T11:01:53.195Z,1006.42
2022-09-19T11:02:52.923Z,1006.40
2022-09-19T11:03:52.913Z,1006.33
2022-09-19T11:04:52.895Z,1006.36
2022-09-19T11:05:52.871Z,1006.32
2022-09-19T11:06:52.875Z,1006.42
2022-09-19T11:07:52.884Z,1006.39
2022-09-19T11:08:52.842Z,1006.47
2022-09-19T11:09:52.836Z,1006.37
2022-09-19T11:10:52.827Z,1006.42
2022-09-19T11:11:52.817Z,1006.37
2022-09-19T11:12:52.794Z,1006.38
2022-09-19T11:13:53.161Z,1006.47
2022-09-19T11:14:52.786Z,1006.38
2022-09-19T11:15:52.768Z,1006.36
2022-09-19T11:16:52.812Z,1006.46
2022-09-19T11:17:52.746Z,1006.39
2022-09-19T11:18:52.956Z,1006.32
2022-09-19T11:19:52.719Z,1006.35
2022-09-19T11:20:52.697Z,1006.38
2022-09-19T11:21:52.697Z,1006.41
2022-09-19T11:22:57.720Z,1006.44
2022-09-19T11:23:53.990Z,1006.53
2022-09-19T11:24:52.672Z,1006.54
2022-09-19T11:25:52.654Z,1006.55
2022-09-19T11:26:52.647Z,1006.49
2022-09-19T11:27:52.631Z,1006.47
2022-09-19T11:28:52.722Z,1006.46
2022-09-19T11:29:52.907Z,1006.50
2022-09-19T11:30:52.614Z,1006.45
2022-09-19T11:32:57.055Z,1006.52
2022-09-19T11:35:05.766Z,1006.51
2022-09-19T11:35:53.586Z,1006.47
2022-09-19T11:36:52.515Z,1006.46
2022-09-19T11:37:52.701Z,1006.48
2022-09-19T11:39:54.565Z,1006.38
2022-09-19T11:40:52.472Z,1006.37
2022-09-19T11:41:52.455Z,1006.49
2022-09-19T11:42:52.459Z,1006.42
2022-09-19T11:43:52.453Z,1006.46
2022-09-19T11:44:52.414Z,1006.42
2022-09-19T11:45:52.441Z,1006.48
2022-09-19T11:46:52.407Z,1006.39
2022-09-19T11:47:52.374Z,1006.45
2022-09-19T11:48:52.585Z,1006.39
2022-09-19T11:49:52.368Z,1006.42
2022-09-19T11:50:52.360Z,1006.39
2022-09-19T11:51:52.334Z,1006.42
2022-09-19T11:52:52.339Z,1006.41
2022-09-19T11:53:52.337Z,1006.34
2022-09-19T11:54:52.331Z,1006.38
2022-09-19T11:55:52.301Z,1006.28
2022-09-19T11:56:52.278Z,1006.30
2022-09-19T11:57:52.291Z,1006.18
2022-09-19T11:58:52.258Z,1006.25
2022-09-19T11:59:52.252Z,1006.19
2022-09-19T12:00:52.242Z,1006.27
2022-09-19T12:01:52.260Z,1006.23
2022-09-19T12:02:52.513Z,1006.19
2022-09-19T12:03:52.280Z,1006.16
2022-09-19T12:04:53.741Z,1006.24
2022-09-19T12:05:52.181Z,1006.17
2022-09-19T12:06:52.160Z,1006.14
2022-09-19T12:07:52.163Z,1006.26
2022-09-19T12:08:52.342Z,1006.14